Time;durP1;ratioP1;P1;durP2;ratioP2;P2;SDS_P1;SDS_P2;PMS_P1;PMS_P2;Temp;Humidity;BMP_temperature;BMP_pressure;BME280_temperature;BME280_humidity;BME280_pressure;Samples;Min_cycle;Max_cycle;Signal;HPM_P1;HPM_P2
2021/01/21 00:00:39;;;;;;;130.00;85.13;;;6.40;94.00;;;;;;5049647;28;20557;-55
2021/01/21 00:03:05;;;;;;;124.30;85.27;;;6.40;93.70;;;;;;5033687;28;20040;-56
2021/01/21 00:05:31;;;;;;;128.20;84.03;;;6.40;94.00;;;;;;5040039;28;20067;-56
2021/01/21 00:07:56;;;;;;;144.13;91.93;;;6.30;93.40;;;;;;5040925;28;20101;-55
2021/01/21 00:10:22;;;;;;;132.83;86.70;;;6.40;93.90;;;;;;5044741;28;20064;-56
2021/01/21 00:12:50;;;;;;;129.80;86.77;;;6.40;93.70;;;;;;5052328;28;20669;-53
2021/01/21 00:15:15;;;;;;;139.27;90.97;;;6.40;93.70;;;;;;5039516;28;20070;-52
2021/01/21 00:17:41;;;;;;;130.80;86.90;;;6.40;93.70;;;;;;5046729;28;20052;-55
2021/01/21 00:20:07;;;;;;;139.53;90.60;;;6.30;93.40;;;;;;5038204;28;20242;-51
2021/01/21 00:22:33;;;;;;;138.73;90.10;;;6.40;93.30;;;;;;5042211;28;20041;-52
2021/01/21 00:24:59;;;;;;;156.70;95.50;;;6.30;93.00;;;;;;5045172;28;20041;-56
2021/01/21 00:27:24;;;;;;;145.47;90.20;;;6.30;93.50;;;;;;5049774;28;20066;-55
2021/01/21 00:29:50;;;;;;;135.43;87.80;;;6.30;93.20;;;;;;5039352;28;20041;-56
2021/01/21 00:32:16;;;;;;;139.17;90.57;;;6.30;93.40;;;;;;5049986;28;20538;-56
2021/01/21 00:34:41;;;;;;;132.93;86.83;;;6.30;93.20;;;;;;5046504;28;20033;-56
2021/01/21 00:37:09;;;;;;;125.43;81.70;;;6.40;92.90;;;;;;5036548;28;20075;-51
2021/01/21 00:39:35;;;;;;;133.20;86.00;;;6.30;92.90;;;;;;5035068;28;20163;-55
2021/01/21 00:42:01;;;;;;;128.40;82.33;;;6.30;93.10;;;;;;5037370;28;20128;-53
2021/01/21 00:44:26;;;;;;;125.00;82.10;;;6.30;93.00;;;;;;5043318;28;20029;-54
2021/01/21 00:46:52;;;;;;;124.27;83.50;;;6.30;92.80;;;;;;5045523;28;20040;-55
2021/01/21 00:49:17;;;;;;;132.87;86.77;;;6.40;93.00;;;;;;5035597;28;20450;-53
2021/01/21 00:51:43;;;;;;;130.57;82.90;;;6.30;92.90;;;;;;5045767;28;20559;-55
2021/01/21 00:54:09;;;;;;;133.13;87.00;;;6.30;92.80;;;;;;5041857;28;20037;-57
2021/01/21 00:56:34;;;;;;;135.50;88.67;;;6.30;93.00;;;;;;5043963;28;20045;-56
2021/01/21 00:59:00;;;;;;;136.17;87.40;;;6.40;92.80;;;;;;5039983;28;20090;-54
2021/01/21 01:01:26;;;;;;;133.73;87.63;;;6.50;92.70;;;;;;5035086;28;20155;-52
2021/01/21 01:03:51;;;;;;;131.57;86.30;;;6.50;92.20;;;;;;5044230;28;20044;-55
2021/01/21 01:06:17;;;;;;;134.80;84.93;;;6.40;92.50;;;;;;5042026;28;20045;-52
2021/01/21 01:08:42;;;;;;;132.53;86.47;;;6.40;92.50;;;;;;5035236;28;20032;-55
2021/01/21 01:11:09;;;;;;;132.10;85.13;;;6.40;92.30;;;;;;5028678;28;20087;-55
2021/01/21 01:13:34;;;;;;;132.03;87.60;;;6.40;91.90;;;;;;5049471;28;20497;-55
2021/01/21 01:16:00;;;;;;;133.27;87.80;;;6.40;92.10;;;;;;5037554;28;20029;-55
2021/01/21 01:18:25;;;;;;;141.77;90.13;;;6.40;92.50;;;;;;5047783;28;20116;-53
2021/01/21 01:20:51;;;;;;;137.93;87.43;;;6.50;92.50;;;;;;5037328;28;20029;-57
2021/01/21 01:23:17;;;;;;;133.53;86.63;;;6.50;92.70;;;;;;5040662;28;20505;-56
2021/01/21 01:25:42;;;;;;;127.23;84.37;;;6.40;92.50;;;;;;5028533;28;20071;-57
2021/01/21 01:28:08;;;;;;;136.40;86.90;;;6.30;92.30;;;;;;5050943;28;20394;-57
2021/01/21 01:30:34;;;;;;;139.00;89.80;;;6.30;92.80;;;;;;5042161;28;20794;-54
2021/01/21 01:33:00;;;;;;;139.10;90.67;;;6.30;92.40;;;;;;5046920;28;20163;-57
2021/01/21 01:35:26;;;;;;;136.67;87.27;;;6.30;92.40;;;;;;5043113;28;20608;-57
2021/01/21 01:37:51;;;;;;;140.53;89.73;;;6.30;92.50;;;;;;5038139;28;20106;-57
2021/01/21 01:40:17;;;;;;;136.27;87.90;;;6.40;92.60;;;;;;5055493;28;20095;-57
2021/01/21 01:42:44;;;;;;;136.60;88.23;;;6.30;92.40;;;;;;5027815;28;20057;-55
2021/01/21 01:45:11;;;;;;;145.10;89.83;;;6.40;92.40;;;;;;5044268;28;20033;-55
2021/01/21 01:47:40;;;;;;;149.10;92.20;;;6.40;92.30;;;;;;5040857;28;20074;-55
2021/01/21 01:50:07;;;;;;;136.53;87.60;;;6.30;92.40;;;;;;5043637;28;20041;-57
2021/01/21 01:52:32;;;;;;;135.27;87.47;;;6.20;92.30;;;;;;5037658;28;20110;-53
2021/01/21 01:54:59;;;;;;;144.47;91.97;;;6.20;92.30;;;;;;5044020;28;20475;-51
2021/01/21 01:57:27;;;;;;;136.43;90.97;;;6.20;92.40;;;;;;5026306;28;20037;-56
2021/01/21 01:59:57;;;;;;;147.33;94.30;;;6.20;92.40;;;;;;5037080;28;20057;-53
2021/01/21 02:02:23;;;;;;;141.67;91.97;;;6.20;92.70;;;;;;5030465;28;20047;-55
2021/01/21 02:04:49;;;;;;;138.63;90.37;;;6.20;92.70;;;;;;5046146;28;20033;-56
2021/01/21 02:07:14;;;;;;;147.93;94.23;;;6.20;92.70;;;;;;5039654;28;20423;-56
2021/01/21 02:09:41;;;;;;;135.43;86.87;;;6.20;92.50;;;;;;5038436;28;20041;-55
2021/01/21 02:12:21;;;;;;;142.37;91.20;;;6.20;92.40;;;;;;5034591;28;20048;-55
2021/01/21 02:14:47;;;;;;;141.57;91.53;;;6.30;92.70;;;;;;5044760;28;20040;-55
2021/01/21 02:17:35;;;;;;;140.97;88.63;;;6.30;92.50;;;;;;5042447;28;20048;-54
2021/01/21 02:20:19;;;;;;;129.00;84.07;;;6.30;92.50;;;;;;5014744;28;20038;-55
2021/01/21 02:23:05;;;;;;;136.30;88.43;;;6.30;92.30;;;;;;5023096;28;20045;-59
2021/01/21 02:25:47;;;;;;;137.47;89.13;;;6.30;92.50;;;;;;5036296;28;20041;-56
2021/01/21 02:28:36;;;;;;;132.20;86.17;;;6.30;92.50;;;;;;5030722;28;20515;-52
2021/01/21 02:31:14;;;;;;;132.87;84.27;;;6.30;92.60;;;;;;5014789;28;20041;-54
2021/01/21 02:33:56;;;;;;;130.30;85.50;;;6.30;92.60;;;;;;5031830;28;20041;-56
2021/01/21 02:36:33;;;;;;;134.10;87.53;;;6.30;92.50;;;;;;5016465;28;20042;-55
2021/01/21 02:39:02;;;;;;;139.60;89.43;;;6.30;92.80;;;;;;5028104;28;20061;-55
2021/01/21 02:41:30;;;;;;;137.03;88.03;;;6.40;92.70;;;;;;5043485;28;20043;-53
2021/01/21 02:43:55;;;;;;;138.40;87.40;;;6.30;92.60;;;;;;5043497;28;20048;-53
2021/01/21 02:46:22;;;;;;;137.50;87.77;;;6.30;92.50;;;;;;5041698;28;20106;-52
2021/01/21 02:48:51;;;;;;;137.40;90.57;;;6.30;92.30;;;;;;5032495;28;20045;-55
2021/01/21 02:51:40;;;;;;;146.73;91.43;;;6.30;92.50;;;;;;5051824;28;20045;-56
2021/01/21 02:54:24;;;;;;;136.90;88.80;;;6.30;92.40;;;;;;5035687;28;20044;-52
2021/01/21 02:56:55;;;;;;;130.37;84.70;;;6.30;92.50;;;;;;5043277;28;20486;-53
2021/01/21 02:59:22;;;;;;;132.73;86.27;;;6.20;92.20;;;;;;5041990;28;20060;-52
2021/01/21 03:01:50;;;;;;;139.83;88.33;;;6.30;92.20;;;;;;5042969;28;20035;-55
2021/01/21 03:04:17;;;;;;;134.53;86.83;;;6.20;92.20;;;;;;5044303;28;20499;-55
2021/01/21 03:06:44;;;;;;;138.67;88.20;;;6.20;92.10;;;;;;5043706;28;20106;-55
2021/01/21 03:09:10;;;;;;;139.37;89.67;;;6.20;92.20;;;;;;5044246;28;20041;-53
2021/01/21 03:11:35;;;;;;;137.27;87.83;;;6.30;92.50;;;;;;5045665;28;20099;-52
2021/01/21 03:14:01;;;;;;;136.97;88.30;;;6.20;92.30;;;;;;5048374;28;20028;-56
2021/01/21 03:16:26;;;;;;;134.97;87.87;;;6.30;92.20;;;;;;5044925;28;20499;-53
2021/01/21 03:18:52;;;;;;;129.10;84.23;;;6.30;92.40;;;;;;5043320;28;20103;-55
2021/01/21 03:21:19;;;;;;;138.40;88.33;;;6.20;92.20;;;;;;5038582;28;20044;-55
2021/01/21 03:23:46;;;;;;;143.87;87.77;;;6.20;92.20;;;;;;5042286;28;20091;-56
2021/01/21 03:26:12;;;;;;;136.20;88.90;;;6.20;92.20;;;;;;5038915;28;20060;-56
2021/01/21 03:28:39;;;;;;;133.80;87.47;;;6.20;92.00;;;;;;5043513;28;20045;-55
2021/01/21 03:31:05;;;;;;;126.67;83.47;;;6.20;92.50;;;;;;5042713;28;20037;-57
2021/01/21 03:33:30;;;;;;;133.33;87.23;;;6.20;92.70;;;;;;5048135;28;20548;-55
2021/01/21 03:35:56;;;;;;;131.40;83.97;;;6.20;92.70;;;;;;5030549;28;20458;-53
2021/01/21 03:38:22;;;;;;;143.07;88.07;;;6.20;92.70;;;;;;5048762;28;20053;-51
2021/01/21 03:40:48;;;;;;;138.03;90.80;;;6.20;93.10;;;;;;5046274;28;20040;-53
2021/01/21 03:43:13;;;;;;;134.63;84.40;;;6.20;92.40;;;;;;5042611;28;20391;-55
2021/01/21 03:45:39;;;;;;;133.03;86.97;;;6.10;92.40;;;;;;5040788;28;20068;-56
2021/01/21 03:48:05;;;;;;;138.23;87.37;;;6.20;92.10;;;;;;5045649;28;20490;-56
2021/01/21 03:50:31;;;;;;;127.20;85.73;;;6.20;92.10;;;;;;5050133;28;20419;-53
2021/01/21 03:52:56;;;;;;;133.67;84.93;;;6.20;92.00;;;;;;5037058;28;20044;-56
2021/01/21 03:55:22;;;;;;;139.57;88.77;;;6.20;92.00;;;;;;5037891;28;20064;-56
2021/01/21 03:57:47;;;;;;;142.37;88.10;;;6.20;92.20;;;;;;5045931;28;20499;-55
2021/01/21 04:00:14;;;;;;;125.13;83.60;;;6.20;92.00;;;;;;5036866;28;20442;-54
2021/01/21 04:02:39;;;;;;;133.20;84.53;;;6.20;92.30;;;;;;5041747;28;20399;-56
2021/01/21 04:05:05;;;;;;;136.90;86.73;;;6.20;92.10;;;;;;5037692;28;20044;-53
2021/01/21 04:07:31;;;;;;;133.27;84.23;;;6.20;92.00;;;;;;5036983;28;20044;-56
2021/01/21 04:09:56;;;;;;;123.93;82.73;;;6.20;92.20;;;;;;5046136;28;20029;-55
2021/01/21 04:12:22;;;;;;;134.67;84.43;;;6.30;92.30;;;;;;5037423;28;20029;-54
2021/01/21 04:14:48;;;;;;;131.50;84.93;;;6.30;92.20;;;;;;5048989;28;20071;-54
2021/01/21 04:17:13;;;;;;;134.17;86.20;;;6.30;92.10;;;;;;5044942;28;20029;-57
2021/01/21 04:19:39;;;;;;;133.13;85.20;;;6.30;92.20;;;;;;5043822;28;20453;-55
2021/01/21 04:22:04;;;;;;;131.87;87.03;;;6.40;92.00;;;;;;5037892;28;20040;-55
2021/01/21 04:24:30;;;;;;;135.60;86.37;;;6.40;92.00;;;;;;5044695;28;20380;-56
2021/01/21 04:26:56;;;;;;;135.70;86.37;;;6.40;92.10;;;;;;5034867;28;20072;-54
2021/01/21 04:29:21;;;;;;;126.60;79.60;;;6.30;92.10;;;;;;5044453;28;20092;-56
2021/01/21 04:31:47;;;;;;;131.47;83.43;;;6.30;92.20;;;;;;5042876;28;20442;-57
2021/01/21 04:34:13;;;;;;;135.20;85.30;;;6.40;92.20;;;;;;5043222;28;20431;-53
2021/01/21 04:36:38;;;;;;;136.43;87.33;;;6.40;91.90;;;;;;5038799;28;20045;-53
2021/01/21 04:39:04;;;;;;;124.30;80.27;;;6.40;91.90;;;;;;5040336;28;20127;-51
2021/01/21 04:41:30;;;;;;;124.83;81.60;;;6.30;92.20;;;;;;5037468;28;20070;-55
2021/01/21 04:43:56;;;;;;;140.27;87.67;;;6.30;91.90;;;;;;5040003;28;20116;-55
2021/01/21 04:46:22;;;;;;;136.67;87.37;;;6.20;92.00;;;;;;5042653;28;20040;-56
2021/01/21 04:48:48;;;;;;;139.33;89.00;;;6.30;92.00;;;;;;5040413;28;20495;-54
2021/01/21 04:51:15;;;;;;;138.70;88.47;;;6.30;92.10;;;;;;5041657;28;20179;-56
2021/01/21 04:53:46;;;;;;;134.23;87.60;;;6.30;92.00;;;;;;5035705;28;20082;-56
2021/01/21 04:56:18;;;;;;;144.97;86.50;;;6.40;92.20;;;;;;5040512;28;20083;-56
2021/01/21 04:58:51;;;;;;;132.87;83.83;;;6.40;92.00;;;;;;5043885;28;20048;-56
2021/01/21 05:01:18;;;;;;;134.93;85.97;;;6.30;91.80;;;;;;5040634;28;20052;-57
2021/01/21 05:03:44;;;;;;;133.60;83.23;;;6.20;92.10;;;;;;5039129;28;20033;-57
2021/01/21 05:06:10;;;;;;;134.97;86.63;;;6.20;92.00;;;;;;5038120;28;20788;-56
2021/01/21 05:08:36;;;;;;;136.20;87.07;;;6.30;92.10;;;;;;5033721;28;20078;-53
2021/01/21 05:11:02;;;;;;;150.13;91.43;;;6.30;91.90;;;;;;5039592;28;20391;-52
2021/01/21 05:13:28;;;;;;;149.97;92.13;;;6.20;92.20;;;;;;5048066;28;20056;-54
2021/01/21 05:15:53;;;;;;;145.47;89.13;;;6.10;92.80;;;;;;5043623;28;20496;-53
2021/01/21 05:18:28;;;;;;;139.97;87.03;;;6.00;92.90;;;;;;5045067;28;20045;-56
2021/01/21 05:20:54;;;;;;;;;;;6.00;93.50;;;;;;5039527;28;20029;-53
2021/01/21 05:23:23;;;;;;;151.57;88.90;;;5.90;94.70;;;;;;5048488;28;19994;-56
2021/01/21 05:25:49;;;;;;;157.87;93.93;;;5.80;94.50;;;;;;5037251;28;20030;-56
2021/01/21 05:28:15;;;;;;;170.53;96.27;;;5.80;94.10;;;;;;5041955;28;20494;-55
2021/01/21 05:30:40;;;;;;;143.93;91.33;;;5.80;94.50;;;;;;5027327;28;20041;-56
2021/01/21 05:33:06;;;;;;;142.97;88.40;;;5.80;94.30;;;;;;5040591;28;20041;-55
2021/01/21 05:35:32;;;;;;;154.90;93.07;;;5.90;94.30;;;;;;5032496;28;20044;-56
2021/01/21 05:37:58;;;;;;;161.37;92.07;;;5.80;94.20;;;;;;5036363;28;20044;-57
2021/01/21 05:40:29;;;;;;;161.40;94.87;;;5.90;93.70;;;;;;5037741;28;22610;-54
2021/01/21 05:42:56;;;;;;;152.53;91.37;;;5.90;93.70;;;;;;5040147;28;20045;-56
2021/01/21 05:45:23;;;;;;;148.73;90.00;;;5.90;93.60;;;;;;5044951;28;20072;-52
2021/01/21 05:51:12;;;;;;;154.37;89.80;;;6.00;93.70;;;;;;5007138;28;20394;-57
2021/01/21 05:53:39;;;;;;;142.37;86.03;;;6.00;93.50;;;;;;5040135;28;20037;-54
2021/01/21 05:56:09;;;;;;;144.83;87.93;;;5.80;92.90;;;;;;5040278;28;20049;-56
2021/01/21 05:58:36;;;;;;;153.07;92.33;;;5.80;92.90;;;;;;5044619;28;20045;-53
2021/01/21 06:01:01;;;;;;;158.73;92.63;;;5.90;93.00;;;;;;5035542;28;20052;-55
2021/01/21 06:03:27;;;;;;;156.33;91.77;;;5.90;93.00;;;;;;5038338;28;20491;-57
2021/01/21 06:05:56;;;;;;;163.23;93.53;;;5.90;93.10;;;;;;5037353;28;20384;-56
2021/01/21 06:08:22;;;;;;;152.77;91.70;;;6.00;93.00;;;;;;5036384;28;20102;-56
2021/01/21 06:10:51;;;;;;;159.30;91.47;;;6.00;92.90;;;;;;5038585;28;20064;-55
2021/01/21 06:13:17;;;;;;;142.87;85.30;;;6.00;93.20;;;;;;5034518;28;20506;-58
2021/01/21 06:15:44;;;;;;;148.73;87.00;;;5.90;93.30;;;;;;5040093;28;20053;-55
2021/01/21 06:18:10;;;;;;;143.93;85.83;;;5.90;93.00;;;;;;5038256;28;20103;-54
2021/01/21 06:20:35;;;;;;;150.67;90.33;;;5.90;93.10;;;;;;5039327;28;20045;-53
2021/01/21 06:23:08;;;;;;;139.37;84.90;;;5.90;93.10;;;;;;5031860;28;20375;-55
2021/01/21 06:25:34;;;;;;;159.03;88.53;;;5.80;92.80;;;;;;5041839;28;20117;-53
2021/01/21 06:28:02;;;;;;;156.00;89.93;;;5.80;93.10;;;;;;5037799;28;20044;-55
2021/01/21 06:30:28;;;;;;;154.73;89.70;;;5.80;93.00;;;;;;5033218;28;20037;-57
2021/01/21 06:33:02;;;;;;;151.53;87.03;;;5.90;93.40;;;;;;5043971;28;20486;-55
2021/01/21 06:35:38;;;;;;;151.90;90.33;;;5.80;93.30;;;;;;5043694;28;20033;-54
2021/01/21 06:38:13;;;;;;;137.13;82.23;;;5.90;93.90;;;;;;5038919;28;20044;-55
2021/01/21 06:40:46;;;;;;;130.03;81.53;;;5.90;93.70;;;;;;5031784;28;20478;-55
2021/01/21 06:43:16;;;;;;;127.40;79.83;;;5.80;93.60;;;;;;5033412;28;20040;-56
2021/01/21 06:45:43;;;;;;;135.53;83.57;;;5.80;94.10;;;;;;5044668;28;20048;-56
2021/01/21 06:48:10;;;;;;;120.63;77.50;;;5.80;94.60;;;;;;5034618;28;20041;-56
2021/01/21 06:50:41;;;;;;;135.80;83.93;;;5.70;94.70;;;;;;5038847;28;20048;-55
2021/01/21 06:53:09;;;;;;;132.90;83.03;;;5.80;95.20;;;;;;5036867;28;20151;-56
2021/01/21 06:55:36;;;;;;;131.87;80.17;;;5.70;94.90;;;;;;5032840;28;20036;-55
2021/01/21 06:58:03;;;;;;;134.23;80.57;;;5.70;95.00;;;;;;5039567;28;20025;-56
2021/01/21 07:00:34;;;;;;;130.67;80.77;;;5.80;95.70;;;;;;5033500;28;20139;-56
2021/01/21 07:03:00;;;;;;;126.03;80.70;;;5.80;95.30;;;;;;5036905;28;20044;-56
2021/01/21 07:05:27;;;;;;;127.40;79.07;;;5.70;95.20;;;;;;5033214;28;20065;-53
2021/01/21 07:07:52;;;;;;;130.23;79.37;;;5.80;95.30;;;;;;5030044;28;20735;-52
2021/01/21 07:10:25;;;;;;;125.97;78.10;;;5.80;95.10;;;;;;5029347;28;20045;-52
2021/01/21 07:12:53;;;;;;;113.57;72.77;;;5.90;95.40;;;;;;5036662;28;20049;-52
2021/01/21 07:15:27;;;;;;;118.03;71.83;;;5.80;94.40;;;;;;5038021;28;20407;-52
2021/01/21 07:18:00;;;;;;;109.53;71.10;;;5.90;94.80;;;;;;5043529;28;20043;-53
2021/01/21 07:20:25;;;;;;;115.53;72.60;;;5.90;94.30;;;;;;5042291;28;20037;-53
2021/01/21 07:22:57;;;;;;;113.17;71.90;;;5.90;94.30;;;;;;5037534;28;20067;-56
2021/01/21 07:25:29;;;;;;;118.10;74.73;;;5.90;94.20;;;;;;5035112;28;20041;-53
2021/01/21 07:27:55;;;;;;;108.33;69.80;;;5.90;94.10;;;;;;5035205;28;20034;-51
2021/01/21 07:30:22;;;;;;;114.93;72.27;;;5.90;94.00;;;;;;5044370;28;20051;-53
2021/01/21 07:32:49;;;;;;;114.10;71.43;;;5.80;98.40;;;;;;5033587;28;20029;-53
2021/01/21 07:35:35;;;;;;;116.77;71.70;;;5.60;98.10;;;;;;5041884;28;20060;-54
2021/01/21 07:38:01;;;;;;;118.07;73.83;;;5.70;99.40;;;;;;5019057;28;20407;-53
2021/01/21 07:40:44;;;;;;;107.27;69.47;;;5.80;99.70;;;;;;5034981;28;20127;-55
2021/01/21 07:43:10;;;;;;;119.17;71.90;;;5.80;99.20;;;;;;5045337;28;20521;-55
2021/01/21 07:45:37;;;;;;;111.40;70.23;;;5.70;98.40;;;;;;5042471;28;20037;-56
2021/01/21 07:48:27;;;;;;;120.70;73.10;;;5.70;99.30;;;;;;5038636;28;20060;-56
2021/01/21 07:50:53;;;;;;;118.37;71.40;;;5.70;99.40;;;;;;5004023;28;20045;-55
2021/01/21 07:53:24;;;;;;;113.97;69.70;;;5.70;99.10;;;;;;5036917;28;20047;-56
2021/01/21 07:55:51;;;;;;;105.33;66.67;;;5.80;98.80;;;;;;5037002;28;20033;-55
2021/01/21 07:58:22;;;;;;;107.67;68.83;;;5.80;98.40;;;;;;5038549;28;20056;-58
2021/01/21 08:00:52;;;;;;;95.17;61.97;;;5.90;98.20;;;;;;5035696;28;21948;-55
2021/01/21 08:03:36;;;;;;;92.90;60.60;;;5.80;96.20;;;;;;5048487;28;20091;-53
2021/01/21 08:06:23;;;;;;;84.23;56.40;;;5.80;96.80;;;;;;5038338;28;20041;-55
2021/01/21 08:08:51;;;;;;;85.03;56.83;;;5.90;97.20;;;;;;5043815;28;20028;-51
2021/01/21 08:11:17;;;;;;;82.63;54.80;;;5.90;96.70;;;;;;5045284;28;20095;-56
2021/01/21 08:13:43;;;;;;;85.93;56.77;;;5.90;96.50;;;;;;5051155;28;20087;-55
2021/01/21 08:16:17;;;;;;;89.07;57.40;;;6.00;96.40;;;;;;5044607;28;20449;-55
2021/01/21 08:18:45;;;;;;;84.67;59.00;;;6.10;95.90;;;;;;5048147;28;20125;-55
2021/01/21 08:21:25;;;;;;;85.33;57.40;;;6.10;95.30;;;;;;5035190;28;20707;-55
2021/01/21 08:23:54;;;;;;;87.20;55.90;;;6.20;94.70;;;;;;5039283;28;20120;-55
2021/01/21 08:26:20;;;;;;;86.70;55.93;;;6.10;94.40;;;;;;5048998;28;20037;-55
2021/01/21 08:28:46;;;;;;;84.73;56.70;;;6.00;93.80;;;;;;5043256;28;20520;-52
2021/01/21 08:31:11;;;;;;;87.00;56.47;;;6.10;93.60;;;;;;5061629;28;20509;-56
2021/01/21 08:33:39;;;;;;;79.77;53.40;;;6.10;93.40;;;;;;5038151;28;20167;-54
2021/01/21 08:36:06;;;;;;;89.63;59.33;;;6.20;92.90;;;;;;5046010;28;20044;-54
2021/01/21 08:38:40;;;;;;;86.27;57.87;;;6.20;93.20;;;;;;5043468;28;20060;-52
2021/01/21 08:41:07;;;;;;;79.10;55.57;;;6.20;93.10;;;;;;5043256;28;20048;-53
2021/01/21 08:43:38;;;;;;;79.13;55.30;;;6.20;93.00;;;;;;5039442;28;20394;-62
2021/01/21 08:46:18;;;;;;;84.53;57.87;;;6.20;92.80;;;;;;5043399;28;20040;-54
2021/01/21 08:48:44;;;;;;;86.80;57.63;;;6.20;93.30;;;;;;5042664;28;20029;-51
2021/01/21 08:51:25;;;;;;;86.17;59.23;;;6.10;93.50;;;;;;5044637;28;20034;-55
2021/01/21 08:53:51;;;;;;;85.57;57.27;;;6.30;93.70;;;;;;5023294;28;20451;-56
2021/01/21 09:09:03;;;;;;;83.83;59.50;;;6.20;93.70;;;;;;5005340;27;20447;-56
2021/01/21 09:11:30;;;;;;;83.40;57.47;;;6.50;92.10;;;;;;4978761;28;20099;-52
2021/01/21 09:13:56;;;;;;;76.60;54.57;;;6.40;92.80;;;;;;4982903;28;20042;-56
2021/01/21 09:16:49;;;;;;;85.73;56.80;;;6.30;93.00;;;;;;4988038;28;20049;-56
2021/01/21 09:19:36;;;;;;;89.83;60.47;;;6.50;93.30;;;;;;4959394;28;20079;-54
2021/01/21 09:22:10;;;;;;;88.23;58.73;;;6.40;93.10;;;;;;4942069;28;20055;-53
2021/01/21 09:24:57;;;;;;;92.30;62.55;;;6.40;93.30;;;;;;4982975;28;20035;-54
2021/01/21 09:27:23;;;;;;;94.73;64.13;;;6.50;93.60;;;;;;4981327;28;20046;-55
2021/01/21 09:29:50;;;;;;;92.73;61.53;;;6.50;93.30;;;;;;4982200;28;20056;-56
2021/01/21 09:32:18;;;;;;;93.70;61.43;;;6.40;93.00;;;;;;4993905;28;20038;-53
2021/01/21 09:35:01;;;;;;;91.77;62.27;;;6.40;93.10;;;;;;4981167;28;20057;-53
2021/01/21 09:37:29;;;;;;;89.33;62.30;;;6.50;92.50;;;;;;4977852;28;20092;-52
2021/01/21 09:39:55;;;;;;;87.90;57.93;;;6.50;93.10;;;;;;4981959;28;20050;-54
2021/01/21 09:42:21;;;;;;;83.43;56.97;;;6.50;92.60;;;;;;4983366;28;20129;-55
2021/01/21 09:44:47;;;;;;;85.87;58.83;;;6.40;92.50;;;;;;4979075;28;20050;-56
2021/01/21 09:47:13;;;;;;;85.40;57.77;;;6.50;92.80;;;;;;4981754;28;20042;-54
2021/01/21 09:49:46;;;;;;;85.63;57.43;;;6.50;92.60;;;;;;4978581;28;20169;-55
2021/01/21 09:52:13;;;;;;;90.23;59.77;;;6.50;92.50;;;;;;4981618;28;20034;-56
2021/01/21 09:54:39;;;;;;;87.80;58.03;;;6.50;93.00;;;;;;4977722;28;20049;-55
2021/01/21 09:57:05;;;;;;;90.30;59.27;;;6.50;92.70;;;;;;4982302;28;20050;-56
2021/01/21 09:59:31;;;;;;;87.07;57.70;;;6.60;92.60;;;;;;4985686;28;20949;-55
2021/01/21 10:01:57;;;;;;;90.83;59.50;;;6.50;92.70;;;;;;4981176;28;20039;-55
2021/01/21 10:04:23;;;;;;;95.43;64.83;;;6.50;92.60;;;;;;4988402;28;20048;-53
2021/01/21 10:06:49;;;;;;;96.63;62.67;;;6.70;92.80;;;;;;4986963;28;20436;-54
2021/01/21 10:09:15;;;;;;;90.67;61.17;;;6.70;92.60;;;;;;4977327;28;20047;-55
2021/01/21 10:11:40;;;;;;;87.80;60.73;;;6.60;92.80;;;;;;4976669;28;20043;-54
2021/01/21 10:14:06;;;;;;;91.70;61.20;;;6.70;92.70;;;;;;4967760;28;20483;-55
2021/01/21 10:16:32;;;;;;;90.63;62.13;;;6.70;92.70;;;;;;4970709;28;20220;-54
2021/01/21 10:18:58;;;;;;;88.03;58.67;;;6.70;92.70;;;;;;4969871;28;20047;-57
2021/01/21 10:21:24;;;;;;;91.10;59.07;;;6.70;92.50;;;;;;4969973;28;20035;-58
2021/01/21 10:23:51;;;;;;;93.23;60.63;;;6.70;92.20;;;;;;4973868;28;20043;-58
2021/01/21 10:26:17;;;;;;;82.13;55.27;;;6.70;92.20;;;;;;4970568;28;20039;-55
2021/01/21 10:28:43;;;;;;;84.13;57.77;;;6.50;91.90;;;;;;4974486;28;20050;-55
2021/01/21 10:31:09;;;;;;;87.90;57.87;;;6.70;92.60;;;;;;4972898;28;20058;-55
2021/01/21 10:33:36;;;;;;;84.80;57.83;;;6.60;92.20;;;;;;4979336;28;20137;-56
2021/01/21 10:36:05;;;;;;;80.67;57.37;;;6.70;93.00;;;;;;4970265;28;20172;-56
2021/01/21 10:38:31;;;;;;;89.90;60.00;;;6.70;92.50;;;;;;4984078;28;20062;-55
2021/01/21 10:40:57;;;;;;;88.70;59.60;;;6.70;92.60;;;;;;4967255;28;20142;-56
2021/01/21 10:43:23;;;;;;;88.83;59.33;;;6.80;92.80;;;;;;4968272;28;20038;-55
2021/01/21 10:45:48;;;;;;;84.27;56.03;;;6.80;92.30;;;;;;4968270;28;20086;-55
2021/01/21 10:48:14;;;;;;;84.67;58.80;;;6.90;92.40;;;;;;4970603;28;20046;-54
2021/01/21 10:50:40;;;;;;;85.13;58.70;;;6.90;92.40;;;;;;4966992;28;20039;-54
2021/01/21 10:53:06;;;;;;;90.30;60.23;;;6.90;92.40;;;;;;4972144;28;20057;-55
2021/01/21 10:55:31;;;;;;;83.47;56.17;;;6.90;92.60;;;;;;4965527;28;20529;-56
2021/01/21 10:57:57;;;;;;;90.83;61.43;;;6.90;92.50;;;;;;4974148;28;20384;-56
2021/01/21 11:00:22;;;;;;;96.80;63.93;;;6.90;92.90;;;;;;4974269;28;20184;-56
2021/01/21 11:02:48;;;;;;;90.87;62.93;;;6.80;93.30;;;;;;4963107;28;20493;-55
2021/01/21 11:05:15;;;;;;;96.13;65.63;;;6.80;93.40;;;;;;4979287;28;20046;-53
2021/01/21 11:07:40;;;;;;;104.20;67.40;;;6.80;93.70;;;;;;4966830;28;20087;-55
2021/01/21 11:10:07;;;;;;;103.77;67.23;;;6.80;94.10;;;;;;4975233;28;20507;-53
2021/01/21 11:12:33;;;;;;;103.23;67.50;;;6.80;93.70;;;;;;4966178;28;20031;-53
2021/01/21 11:14:58;;;;;;;100.77;67.83;;;6.80;94.50;;;;;;4969733;28;20042;-53
2021/01/21 11:17:25;;;;;;;103.27;68.90;;;6.80;94.20;;;;;;4968057;28;20065;-56
2021/01/21 11:19:50;;;;;;;100.73;66.07;;;6.80;94.20;;;;;;4971156;28;20053;-54
2021/01/21 11:22:16;;;;;;;106.83;69.27;;;6.80;94.20;;;;;;4967316;28;21038;-54
2021/01/21 11:24:42;;;;;;;107.60;69.80;;;6.80;94.30;;;;;;4971559;28;20038;-53
2021/01/21 11:27:07;;;;;;;104.93;70.57;;;6.80;94.30;;;;;;4966578;28;20086;-55
2021/01/21 11:29:33;;;;;;;104.37;69.63;;;6.70;94.50;;;;;;4969940;28;20046;-52
2021/01/21 11:31:59;;;;;;;103.33;69.40;;;6.70;94.30;;;;;;4973540;28;20039;-53
2021/01/21 11:34:25;;;;;;;98.73;67.33;;;6.70;94.80;;;;;;4971294;28;20152;-55
2021/01/21 11:36:51;;;;;;;93.83;65.60;;;6.80;94.70;;;;;;4969998;28;20151;-52
2021/01/21 11:39:17;;;;;;;104.47;67.47;;;6.70;94.00;;;;;;4970003;28;20057;-53
2021/01/21 11:41:43;;;;;;;95.93;66.63;;;6.80;94.40;;;;;;4971518;28;20116;-54
2021/01/21 11:44:09;;;;;;;100.20;68.30;;;6.70;94.20;;;;;;4964155;28;20483;-54
2021/01/21 11:46:34;;;;;;;104.23;67.70;;;6.80;94.40;;;;;;4983977;28;20070;-54
2021/01/21 11:49:00;;;;;;;100.97;66.67;;;6.80;94.10;;;;;;4977266;28;20042;-54
2021/01/21 11:51:26;;;;;;;103.10;67.67;;;6.80;93.90;;;;;;4976179;28;20402;-52
2021/01/21 11:53:52;;;;;;;97.00;65.40;;;6.80;94.00;;;;;;4978153;28;20030;-54
2021/01/21 11:56:17;;;;;;;100.83;66.60;;;6.80;93.80;;;;;;4984630;28;20056;-55
2021/01/21 11:58:43;;;;;;;97.10;67.97;;;6.80;94.00;;;;;;4972318;28;20060;-55
2021/01/21 12:01:09;;;;;;;100.60;64.77;;;6.80;93.70;;;;;;4978477;28;20386;-53
2021/01/21 12:03:35;;;;;;;102.70;69.07;;;6.80;93.70;;;;;;4968175;28;20513;-55
2021/01/21 12:06:01;;;;;;;102.17;67.20;;;6.80;93.90;;;;;;4969117;28;20084;-54
2021/01/21 12:08:27;;;;;;;108.90;68.97;;;6.80;93.50;;;;;;4967971;28;20125;-52
2021/01/21 12:10:53;;;;;;;105.83;65.13;;;6.80;93.50;;;;;;4969637;28;20035;-54
2021/01/21 12:13:18;;;;;;;104.13;68.97;;;6.80;93.40;;;;;;4966524;28;20042;-54
2021/01/21 12:15:44;;;;;;;100.87;67.57;;;6.80;93.70;;;;;;4968317;28;20039;-56
2021/01/21 12:18:10;;;;;;;104.03;67.13;;;6.90;93.70;;;;;;4970742;28;20530;-55
2021/01/21 12:20:35;;;;;;;103.77;68.30;;;6.80;93.40;;;;;;4966826;28;20039;-56
2021/01/21 12:23:01;;;;;;;112.97;69.23;;;6.80;93.30;;;;;;4968822;28;20514;-54
2021/01/21 12:25:27;;;;;;;114.37;73.30;;;6.80;93.50;;;;;;4966981;28;20049;-56
2021/01/21 12:27:52;;;;;;;110.30;70.67;;;6.70;93.80;;;;;;4967670;28;20053;-55
2021/01/21 12:30:18;;;;;;;110.27;72.23;;;6.80;94.00;;;;;;4962713;28;20115;-56
2021/01/21 12:32:44;;;;;;;103.63;68.83;;;6.80;93.90;;;;;;4967210;28;20043;-55
2021/01/21 12:35:10;;;;;;;102.63;68.57;;;6.80;93.90;;;;;;4972451;28;20380;-55
2021/01/21 12:37:36;;;;;;;105.07;68.73;;;6.60;94.10;;;;;;4970910;28;20131;-54
2021/01/21 12:40:03;;;;;;;116.13;74.00;;;6.60;95.00;;;;;;4966717;28;20046;-56
2021/01/21 12:42:30;;;;;;;105.77;69.70;;;6.60;95.50;;;;;;4971033;28;20122;-53
2021/01/21 12:44:55;;;;;;;111.50;70.77;;;6.50;95.80;;;;;;4963759;28;20045;-55
2021/01/21 12:47:21;;;;;;;115.53;72.37;;;6.50;95.90;;;;;;4976177;28;20039;-56
2021/01/21 12:49:47;;;;;;;106.47;67.13;;;6.50;95.60;;;;;;4966923;28;20394;-55